sim
Sign-in with your pilot id or email,
or register
Callsign
Passwort

Schedule Details

Flight Number: DLH2241 (1)
Departure: Nantes Atlantique Airport (LFRS) at 07:40
Arrival: Munich Airport (EDDM) at 09:30
Route: Lufthansa Passenger Schedule. Enter filed route here before submitting Pirep.

Weather Information
Getting current METAR information for LFRS 181330Z AUTO 08005KT 050V130 CAVOK 26/14 Q1012 BECMG 28010KT
Getting current METAR information for EDDM 181350Z 09011KT 050V120 CAVOK 19/10 Q1024 NOSIG

Schedule Frequency

Route Map